createdAt,value
2018-11-05T00:00:39.659Z,7.70
2018-11-05T00:03:07.422Z,7.70
2018-11-05T00:05:35.084Z,7.60
2018-11-05T00:08:03.020Z,7.50
2018-11-05T00:10:30.583Z,7.50
2018-11-05T00:12:58.320Z,7.40
2018-11-05T00:15:26.049Z,7.40
2018-11-05T00:17:53.985Z,7.30
2018-11-05T00:20:21.731Z,7.30
2018-11-05T00:22:49.527Z,7.30
2018-11-05T00:25:17.496Z,7.30
2018-11-05T00:27:45.261Z,7.30
2018-11-05T00:30:14.026Z,7.20
2018-11-05T00:32:42.418Z,7.10
2018-11-05T00:35:10.503Z,7.10
2018-11-05T00:37:38.303Z,7.10
2018-11-05T00:40:14.073Z,7.20
2018-11-05T00:42:42.790Z,7.10
2018-11-05T00:45:11.454Z,7.10
2018-11-05T00:47:39.646Z,7.10
2018-11-05T00:50:09.361Z,7.00
2018-11-05T00:52:37.390Z,6.90
2018-11-05T00:55:05.301Z,6.90
2018-11-05T00:57:33.141Z,6.80
2018-11-05T01:00:00.954Z,6.70
2018-11-05T01:02:28.572Z,6.60
2018-11-05T01:04:56.156Z,6.60
2018-11-05T01:07:24.464Z,6.60
2018-11-05T01:09:52.059Z,6.60
2018-11-05T01:12:19.705Z,6.50
2018-11-05T01:14:47.304Z,6.50
2018-11-05T01:17:14.876Z,6.50
2018-11-05T01:19:42.896Z,6.50
2018-11-05T01:22:10.440Z,6.50
2018-11-05T01:24:38.004Z,6.40
2018-11-05T01:27:05.566Z,6.40
2018-11-05T01:29:33.679Z,6.40
2018-11-05T01:32:01.265Z,6.40
2018-11-05T01:34:29.409Z,6.40
2018-11-05T01:36:57.037Z,6.40
2018-11-05T01:39:24.639Z,6.40
2018-11-05T01:41:52.293Z,6.40
2018-11-05T01:44:20.220Z,6.30
2018-11-05T01:46:47.812Z,6.30
2018-11-05T01:49:15.899Z,6.30
2018-11-05T01:51:43.519Z,6.40
2018-11-05T01:54:11.123Z,6.40
2018-11-05T01:56:38.920Z,6.30
2018-11-05T01:59:06.557Z,6.20
2018-11-05T02:01:34.528Z,6.20
2018-11-05T02:04:02.888Z,6.20
2018-11-05T02:06:30.471Z,6.20
2018-11-05T02:08:58.088Z,6.20
2018-11-05T02:11:25.836Z,6.20
2018-11-05T02:13:53.711Z,6.20
2018-11-05T02:16:21.554Z,6.30
2018-11-05T02:18:49.815Z,6.20
2018-11-05T02:21:18.132Z,6.20
2018-11-05T02:23:45.896Z,6.20
2018-11-05T02:26:13.482Z,6.20
2018-11-05T02:28:41.839Z,6.30
2018-11-05T02:31:09.865Z,6.20
2018-11-05T02:33:37.550Z,6.20
2018-11-05T02:36:05.147Z,6.10
2018-11-05T02:38:33.412Z,6.10
2018-11-05T02:41:01.740Z,6.20
2018-11-05T02:43:29.467Z,6.20
2018-11-05T02:45:57.672Z,6.20
2018-11-05T02:48:25.284Z,6.20
2018-11-05T02:50:53.508Z,6.20
2018-11-05T02:53:21.149Z,6.20
2018-11-05T02:55:48.800Z,6.20
2018-11-05T02:58:17.093Z,6.20
2018-11-05T03:00:45.161Z,6.20
2018-11-05T03:03:12.814Z,6.20
2018-11-05T03:05:40.510Z,6.20
2018-11-05T03:08:08.146Z,6.10
2018-11-05T03:10:35.767Z,6.10
2018-11-05T03:13:03.652Z,6.10
2018-11-05T03:15:31.825Z,6.00
2018-11-05T03:17:59.839Z,6.00
2018-11-05T03:20:27.909Z,6.00
2018-11-05T03:23:01.891Z,6.00
2018-11-05T03:25:31.963Z,6.00
2018-11-05T03:28:01.442Z,6.00
2018-11-05T03:30:29.337Z,5.90
2018-11-05T03:32:57.206Z,5.90
2018-11-05T03:35:28.679Z,6.00
2018-11-05T03:37:56.630Z,5.90
2018-11-05T03:40:24.554Z,5.90
2018-11-05T03:42:52.330Z,5.90
2018-11-05T03:45:20.205Z,5.90
2018-11-05T03:47:48.179Z,5.90
2018-11-05T03:50:23.879Z,5.80
2018-11-05T03:52:55.235Z,5.80
2018-11-05T03:55:24.992Z,5.70
2018-11-05T03:57:55.495Z,5.70
2018-11-05T04:00:27.605Z,5.70
2018-11-05T04:02:57.880Z,5.70
2018-11-05T04:05:27.291Z,5.80
2018-11-05T04:07:58.097Z,5.80
2018-11-05T04:10:27.337Z,5.80
2018-11-05T04:13:03.941Z,5.70
2018-11-05T04:15:33.858Z,5.70
2018-11-05T04:18:03.378Z,5.70
2018-11-05T04:20:33.557Z,5.70
2018-11-05T04:23:01.531Z,5.70
2018-11-05T04:25:33.099Z,5.70
2018-11-05T04:28:03.928Z,5.70
2018-11-05T04:30:32.149Z,5.70
2018-11-05T04:33:00.330Z,5.70
2018-11-05T04:35:31.224Z,5.70
2018-11-05T04:38:01.582Z,5.70
2018-11-05T04:40:37.951Z,5.70
2018-11-05T04:43:09.282Z,5.80
2018-11-05T04:45:42.866Z,5.70
2018-11-05T04:52:20.178Z,5.70
2018-11-05T04:55:04.553Z,5.70
2018-11-05T04:57:44.053Z,5.70
2018-11-05T05:00:30.904Z,5.60
2018-11-05T05:06:21.922Z,5.50
2018-11-05T05:12:46.261Z,5.60
2018-11-05T05:15:17.499Z,5.60
2018-11-05T05:17:45.320Z,5.50
2018-11-05T05:20:16.584Z,5.40
2018-11-05T05:22:44.778Z,5.50
2018-11-05T05:25:12.793Z,5.50
2018-11-05T05:27:40.560Z,5.50
2018-11-05T05:30:11.233Z,5.50
2018-11-05T05:32:38.821Z,5.50
2018-11-05T05:35:06.472Z,5.40
2018-11-05T05:37:34.376Z,5.40
2018-11-05T05:40:01.940Z,5.40
2018-11-05T05:42:29.707Z,5.40
2018-11-05T05:44:57.901Z,5.40
2018-11-05T05:47:25.701Z,5.40
2018-11-05T05:49:53.324Z,5.40
2018-11-05T05:52:20.963Z,5.40
2018-11-05T05:54:49.501Z,5.40
2018-11-05T05:57:17.370Z,5.40
2018-11-05T05:59:45.163Z,5.40
2018-11-05T06:02:12.900Z,5.40
2018-11-05T06:04:40.701Z,5.40
2018-11-05T06:07:08.316Z,5.40
2018-11-05T06:09:35.969Z,5.30
2018-11-05T06:12:03.608Z,5.40
2018-11-05T06:14:31.761Z,5.40
2018-11-05T06:16:59.389Z,5.40
2018-11-05T06:19:27.020Z,5.50
2018-11-05T06:21:54.779Z,5.70
2018-11-05T06:24:22.380Z,5.90
2018-11-05T06:26:51.344Z,6.00
2018-11-05T06:29:19.043Z,6.10
2018-11-05T06:31:46.740Z,6.10
2018-11-05T06:34:14.912Z,6.00
2018-11-05T06:36:42.675Z,5.90
2018-11-05T06:39:11.667Z,5.80
2018-11-05T06:41:39.755Z,5.60
2018-11-05T06:44:07.479Z,5.40
2018-11-05T06:46:35.168Z,5.40
2018-11-05T06:49:02.959Z,5.40
2018-11-05T06:51:31.121Z,5.40
2018-11-05T06:53:58.764Z,5.30
2018-11-05T06:56:26.413Z,5.30
2018-11-05T06:58:54.206Z,5.30
2018-11-05T07:01:21.844Z,5.30
2018-11-05T07:03:49.473Z,5.40
2018-11-05T07:06:17.090Z,5.30
2018-11-05T07:08:44.748Z,5.30
2018-11-05T07:11:12.425Z,5.30
2018-11-05T07:13:40.050Z,5.20
2018-11-05T07:16:07.717Z,5.20
2018-11-05T07:18:35.500Z,5.20
2018-11-05T07:21:03.136Z,5.30
2018-11-05T07:23:32.781Z,5.20
2018-11-05T07:26:00.388Z,5.20
2018-11-05T07:28:28.073Z,5.30
2018-11-05T07:30:55.768Z,5.40
2018-11-05T07:33:23.499Z,5.40
2018-11-05T07:35:51.073Z,5.30
2018-11-05T07:38:18.952Z,5.30
2018-11-05T07:40:46.695Z,5.30
2018-11-05T07:43:14.344Z,5.30
2018-11-05T07:45:42.050Z,5.30
2018-11-05T07:48:12.908Z,5.30
2018-11-05T07:50:40.632Z,5.40
2018-11-05T07:53:08.293Z,5.40
2018-11-05T07:55:35.932Z,5.50
2018-11-05T07:58:07.261Z,5.50
2018-11-05T08:00:40.584Z,5.60
2018-11-05T08:03:08.284Z,5.60
2018-11-05T08:05:35.937Z,5.60
2018-11-05T08:08:04.221Z,5.60
2018-11-05T08:10:31.856Z,5.60
2018-11-05T08:12:59.609Z,5.60
2018-11-05T08:15:27.272Z,5.70
2018-11-05T08:17:55.040Z,5.70
2018-11-05T08:20:22.722Z,5.60
2018-11-05T08:22:50.373Z,5.60
2018-11-05T08:25:18.180Z,5.60
2018-11-05T08:27:46.364Z,5.70
2018-11-05T08:30:23.588Z,5.70
2018-11-05T08:32:51.398Z,5.80
2018-11-05T08:35:19.070Z,5.70
2018-11-05T08:37:47.234Z,5.70
2018-11-05T08:40:19.634Z,5.70
2018-11-05T08:42:48.120Z,5.60
2018-11-05T08:45:16.976Z,5.60
2018-11-05T08:47:44.633Z,5.70
2018-11-05T08:50:16.246Z,5.70
2018-11-05T08:52:44.014Z,5.80
2018-11-05T08:55:13.836Z,5.80
2018-11-05T08:57:41.919Z,5.90
2018-11-05T09:00:22.308Z,6.00
2018-11-05T09:02:50.299Z,6.00
2018-11-05T09:05:18.214Z,6.10
2018-11-05T09:07:46.540Z,6.10
2018-11-05T09:10:14.232Z,6.20
2018-11-05T09:12:42.207Z,6.20
2018-11-05T09:15:11.717Z,6.30
2018-11-05T09:17:40.302Z,6.30
2018-11-05T09:20:09.006Z,6.40
2018-11-05T09:22:36.940Z,6.40
2018-11-05T09:25:04.940Z,6.50
2018-11-05T09:27:32.569Z,6.50
2018-11-05T09:30:00.249Z,6.60
2018-11-05T09:32:27.900Z,6.60
2018-11-05T09:34:55.766Z,6.70
2018-11-05T09:37:23.457Z,6.70
2018-11-05T09:39:51.535Z,6.80
2018-11-05T09:42:19.216Z,6.90
2018-11-05T09:44:47.126Z,7.00
2018-11-05T09:47:14.833Z,7.00
2018-11-05T09:49:43.003Z,7.10
2018-11-05T09:52:10.808Z,7.10
2018-11-05T09:54:38.485Z,7.20
2018-11-05T09:57:06.131Z,7.30
2018-11-05T09:59:33.782Z,7.30
2018-11-05T10:02:01.394Z,7.40
2018-11-05T10:04:29.309Z,7.40
2018-11-05T10:06:56.721Z,7.40
2018-11-05T10:09:24.412Z,7.50
2018-11-05T10:11:52.100Z,7.50
2018-11-05T10:14:19.760Z,7.60
2018-11-05T10:16:47.437Z,7.60
2018-11-05T10:19:15.099Z,7.70
2018-11-05T10:21:42.740Z,7.70
2018-11-05T10:24:10.391Z,7.80
2018-11-05T10:26:38.250Z,7.90
2018-11-05T10:29:05.952Z,7.90
2018-11-05T10:31:33.616Z,8.00
2018-11-05T10:34:01.240Z,8.00
2018-11-05T10:36:29.140Z,8.10
2018-11-05T10:38:56.797Z,8.10
2018-11-05T10:41:24.445Z,8.20
2018-11-05T10:43:52.091Z,8.40
2018-11-05T10:46:19.857Z,8.70
2018-11-05T10:48:47.488Z,9.00
2018-11-05T10:51:15.207Z,9.50
2018-11-05T10:53:42.896Z,9.90
2018-11-05T10:56:10.591Z,10.20
2018-11-05T10:58:38.264Z,10.40
2018-11-05T11:01:12.092Z,10.70
2018-11-05T11:03:39.911Z,10.80
2018-11-05T11:06:09.010Z,11.00
2018-11-05T11:08:36.743Z,11.10
2018-11-05T11:11:04.712Z,11.30
2018-11-05T11:13:32.393Z,11.40
2018-11-05T11:16:00.058Z,11.40
2018-11-05T11:18:27.731Z,11.50
2018-11-05T11:20:55.396Z,11.60
2018-11-05T11:23:23.094Z,11.50
2018-11-05T11:25:50.756Z,11.30
2018-11-05T11:28:18.684Z,11.10
2018-11-05T11:30:46.321Z,11.00
2018-11-05T11:33:13.971Z,11.00
2018-11-05T11:35:41.904Z,11.00
2018-11-05T11:38:10.405Z,11.10
2018-11-05T11:40:38.112Z,11.30
2018-11-05T11:43:05.794Z,11.50
2018-11-05T11:45:33.491Z,11.80
2018-11-05T11:48:01.232Z,11.90
2018-11-05T11:50:29.256Z,11.80
2018-11-05T11:52:57.011Z,11.80
2018-11-05T11:55:24.874Z,11.80
2018-11-05T11:57:52.618Z,11.80
2018-11-05T12:00:21.752Z,11.80
2018-11-05T12:02:50.014Z,11.80
2018-11-05T12:05:17.807Z,11.70
2018-11-05T12:07:45.351Z,11.80
2018-11-05T12:10:16.533Z,11.90
2018-11-05T12:12:44.381Z,11.90
2018-11-05T12:15:12.936Z,12.00
2018-11-05T12:17:41.284Z,12.10
2018-11-05T12:20:11.844Z,12.30
2018-11-05T12:22:39.857Z,12.30
2018-11-05T12:25:08.035Z,12.20
2018-11-05T12:27:35.941Z,12.20
2018-11-05T12:30:04.380Z,12.30
2018-11-05T12:32:32.097Z,12.30
2018-11-05T12:34:59.940Z,12.40
2018-11-05T12:37:27.624Z,12.50
2018-11-05T12:39:55.293Z,12.50
2018-11-05T12:42:23.061Z,12.60
2018-11-05T12:44:50.758Z,12.60
2018-11-05T12:47:18.513Z,12.60
2018-11-05T12:49:46.132Z,12.70
2018-11-05T12:52:13.824Z,12.70
2018-11-05T12:54:41.468Z,12.70
2018-11-05T12:57:09.249Z,12.70
2018-11-05T12:59:37.144Z,12.70
2018-11-05T13:02:04.921Z,12.70
2018-11-05T13:04:32.608Z,12.70
2018-11-05T13:07:00.515Z,12.70
2018-11-05T13:09:28.129Z,12.70
2018-11-05T13:11:55.917Z,12.80
2018-11-05T13:14:23.550Z,12.80
2018-11-05T13:16:51.300Z,12.80
2018-11-05T13:19:18.952Z,12.80
2018-11-05T13:21:46.704Z,12.80
2018-11-05T13:24:14.430Z,12.80
2018-11-05T13:26:42.033Z,12.80
2018-11-05T13:29:09.737Z,12.80
2018-11-05T13:31:37.405Z,12.90
2018-11-05T13:34:05.350Z,12.90
2018-11-05T13:36:33.137Z,12.90
2018-11-05T13:39:00.758Z,12.90
2018-11-05T13:41:28.620Z,13.00
2018-11-05T13:43:56.397Z,13.00
2018-11-05T13:46:24.603Z,13.00
2018-11-05T13:48:52.341Z,13.00
2018-11-05T13:51:19.410Z,13.00
2018-11-05T13:53:47.061Z,13.00
2018-11-05T13:56:14.691Z,13.10
2018-11-05T13:58:42.650Z,13.00
2018-11-05T14:01:10.280Z,13.00
2018-11-05T14:03:37.964Z,13.00
2018-11-05T14:06:05.612Z,13.00
2018-11-05T14:08:33.403Z,13.00
2018-11-05T14:11:01.441Z,13.00
2018-11-05T14:13:29.007Z,13.00
2018-11-05T14:15:56.720Z,13.10
2018-11-05T14:18:24.561Z,13.10
2018-11-05T14:20:52.409Z,13.10
2018-11-05T14:23:20.153Z,13.10
2018-11-05T14:25:47.947Z,13.10
2018-11-05T14:28:15.552Z,13.10
2018-11-05T14:30:43.181Z,13.20
2018-11-05T14:33:11.323Z,13.20
2018-11-05T14:35:39.072Z,13.20
2018-11-05T14:38:06.789Z,13.30
2018-11-05T14:40:34.408Z,13.30
2018-11-05T14:43:02.192Z,13.30
2018-11-05T14:45:29.809Z,13.30
2018-11-05T14:47:57.521Z,13.30
2018-11-05T14:50:25.279Z,13.20
2018-11-05T14:52:52.944Z,13.20
2018-11-05T14:55:20.732Z,13.10
2018-11-05T14:57:49.472Z,13.10
2018-11-05T15:00:24.253Z,13.10
2018-11-05T15:02:52.069Z,13.10
2018-11-05T15:05:19.729Z,13.10
2018-11-05T15:07:48.169Z,13.00
2018-11-05T15:10:20.151Z,13.00
2018-11-05T15:12:47.866Z,12.90
2018-11-05T15:15:16.229Z,12.90
2018-11-05T15:17:44.404Z,12.80
2018-11-05T15:20:17.427Z,12.70
2018-11-05T15:22:44.844Z,12.60
2018-11-05T15:25:13.124Z,12.50
2018-11-05T15:27:40.737Z,12.40
2018-11-05T15:30:10.908Z,12.30
2018-11-05T15:32:39.160Z,12.20
2018-11-05T15:35:06.871Z,12.10
2018-11-05T15:37:34.644Z,12.10
2018-11-05T15:40:02.328Z,11.90
2018-11-05T15:42:29.968Z,11.90
2018-11-05T15:44:57.873Z,11.90
2018-11-05T15:47:25.535Z,11.80
2018-11-05T15:49:53.221Z,11.80
2018-11-05T15:52:21.295Z,11.70
2018-11-05T15:54:48.663Z,11.60
2018-11-05T15:57:16.308Z,11.60
2018-11-05T15:59:44.030Z,11.60
2018-11-05T16:02:12.707Z,11.60
2018-11-05T16:04:41.631Z,11.50
2018-11-05T16:07:09.504Z,11.40
2018-11-05T16:09:37.988Z,11.40
2018-11-05T16:12:06.157Z,11.30
2018-11-05T16:14:33.964Z,11.20
2018-11-05T16:17:01.742Z,11.10
2018-11-05T16:19:29.405Z,11.10
2018-11-05T16:21:57.229Z,11.00
2018-11-05T16:24:25.500Z,10.90
2018-11-05T16:26:53.170Z,10.80
2018-11-05T16:29:21.154Z,10.80
2018-11-05T16:31:48.836Z,10.70
2018-11-05T16:34:16.507Z,10.60
2018-11-05T16:36:44.187Z,10.60
2018-11-05T16:39:13.117Z,10.60
2018-11-05T16:41:41.646Z,10.60
2018-11-05T16:44:09.856Z,10.50
2018-11-05T16:46:38.047Z,10.50
2018-11-05T16:49:06.027Z,10.50
2018-11-05T16:51:33.931Z,10.40
2018-11-05T16:54:01.764Z,10.40
2018-11-05T16:56:29.610Z,10.40
2018-11-05T16:58:57.228Z,10.40
2018-11-05T17:01:25.491Z,10.30
2018-11-05T17:03:52.841Z,10.20
2018-11-05T17:06:20.805Z,10.20
2018-11-05T17:08:48.476Z,10.20
2018-11-05T17:11:16.162Z,10.20
2018-11-05T17:13:43.812Z,10.20
2018-11-05T17:16:11.426Z,10.00
2018-11-05T17:18:39.113Z,10.00
2018-11-05T17:21:06.917Z,10.00
2018-11-05T17:23:34.872Z,9.90
2018-11-05T17:26:02.614Z,9.90
2018-11-05T17:28:30.170Z,9.80
2018-11-05T17:30:57.797Z,9.70
2018-11-05T17:33:25.355Z,9.80
2018-11-05T17:35:53.249Z,9.70
2018-11-05T17:38:22.063Z,9.70
2018-11-05T17:40:49.959Z,9.60
2018-11-05T17:43:17.610Z,9.60
2018-11-05T17:45:45.361Z,9.50
2018-11-05T17:48:15.212Z,9.50
2018-11-05T17:50:43.642Z,9.40
2018-11-05T17:53:11.396Z,9.40
2018-11-05T17:55:39.008Z,9.40
2018-11-05T17:58:07.048Z,9.30
2018-11-05T18:00:34.728Z,9.20
2018-11-05T18:03:02.333Z,9.10
2018-11-05T18:05:29.912Z,9.10
2018-11-05T18:07:57.489Z,9.00
2018-11-05T18:10:25.060Z,9.00
2018-11-05T18:12:52.776Z,9.00
2018-11-05T18:15:20.370Z,8.90
2018-11-05T18:17:48.004Z,8.90
2018-11-05T18:20:16.289Z,8.90
2018-11-05T18:22:44.008Z,8.80
2018-11-05T18:25:13.116Z,8.70
2018-11-05T18:27:40.903Z,8.80
2018-11-05T18:30:10.232Z,8.80
2018-11-05T18:32:37.915Z,8.70
2018-11-05T18:35:08.663Z,8.70
2018-11-05T18:37:36.370Z,8.70
2018-11-05T18:40:06.285Z,8.60
2018-11-05T18:42:34.121Z,8.60
2018-11-05T18:45:01.746Z,8.50
2018-11-05T18:47:29.396Z,8.50
2018-11-05T18:49:57.085Z,8.50
2018-11-05T18:52:24.721Z,8.50
2018-11-05T18:54:53.056Z,8.40
2018-11-05T18:57:21.189Z,8.30
2018-11-05T18:59:48.824Z,8.30
2018-11-05T19:02:23.932Z,8.40
2018-11-05T19:04:51.748Z,8.50
2018-11-05T19:07:19.351Z,8.40
2018-11-05T19:09:47.317Z,8.30
2018-11-05T19:12:14.996Z,8.20
2018-11-05T19:14:42.611Z,8.10
2018-11-05T19:17:10.305Z,8.00
2018-11-05T19:19:38.034Z,8.00
2018-11-05T19:22:05.919Z,7.90
2018-11-05T19:24:34.009Z,7.90
2018-11-05T19:27:01.357Z,7.80
2018-11-05T19:29:29.213Z,7.80
2018-11-05T19:31:57.184Z,7.80
2018-11-05T19:34:24.882Z,7.80
2018-11-05T19:36:52.433Z,7.70
2018-11-05T19:39:20.337Z,7.70
2018-11-05T19:41:48.137Z,7.70
2018-11-05T19:44:15.764Z,7.70
2018-11-05T19:46:43.319Z,7.70
2018-11-05T19:49:11.300Z,7.60
2018-11-05T19:51:39.032Z,7.50
2018-11-05T19:54:06.995Z,7.50
2018-11-05T19:56:34.809Z,7.40
2018-11-05T19:59:02.389Z,7.40
2018-11-05T20:01:30.007Z,7.40
2018-11-05T20:03:58.182Z,7.40
2018-11-05T20:06:25.819Z,7.20
2018-11-05T20:08:53.457Z,7.20
2018-11-05T20:11:21.105Z,7.20
2018-11-05T20:13:48.877Z,7.20
2018-11-05T20:16:16.505Z,7.20
2018-11-05T20:18:44.169Z,7.10
2018-11-05T20:21:11.699Z,7.00
2018-11-05T20:23:39.527Z,6.90
2018-11-05T20:26:07.205Z,6.90
2018-11-05T20:28:34.903Z,6.90
2018-11-05T20:31:02.798Z,6.90
2018-11-05T20:33:30.653Z,7.00
2018-11-05T20:35:58.934Z,6.90
2018-11-05T20:38:26.987Z,6.90
2018-11-05T20:40:54.809Z,6.80
2018-11-05T20:43:22.728Z,6.80
2018-11-05T20:45:50.784Z,6.80
2018-11-05T20:48:18.806Z,6.70
2018-11-05T20:50:46.437Z,6.70
2018-11-05T20:53:14.117Z,6.70
2018-11-05T20:55:41.699Z,6.70
2018-11-05T20:58:09.304Z,6.60
2018-11-05T21:00:36.924Z,6.50
2018-11-05T21:03:04.571Z,6.40
2018-11-05T21:05:32.425Z,6.40
2018-11-05T21:08:00.018Z,6.40
2018-11-05T21:10:27.587Z,6.40
2018-11-05T21:12:55.268Z,6.40
2018-11-05T21:15:23.132Z,6.40
2018-11-05T21:17:51.655Z,6.40
2018-11-05T21:20:19.245Z,6.40
2018-11-05T21:22:47.631Z,6.40
2018-11-05T21:25:14.923Z,6.30
2018-11-05T21:27:42.949Z,6.20
2018-11-05T21:30:12.585Z,6.20
2018-11-05T21:32:40.200Z,6.10
2018-11-05T21:35:10.728Z,6.10
2018-11-05T21:37:38.563Z,6.00
2018-11-05T21:40:06.945Z,6.00
2018-11-05T21:42:34.505Z,6.00
2018-11-05T21:45:02.623Z,6.00
2018-11-05T21:47:30.233Z,5.90
2018-11-05T21:49:57.820Z,5.80
2018-11-05T21:52:25.598Z,5.80
2018-11-05T21:54:53.192Z,5.70
2018-11-05T21:57:20.801Z,5.70
2018-11-05T21:59:48.376Z,5.60
2018-11-05T22:02:15.986Z,5.60
2018-11-05T22:04:43.619Z,5.60
2018-11-05T22:07:11.305Z,5.60
2018-11-05T22:09:38.894Z,5.60
2018-11-05T22:12:06.525Z,5.60
2018-11-05T22:14:34.231Z,5.60
2018-11-05T22:17:01.854Z,5.50
2018-11-05T22:19:29.468Z,5.50
2018-11-05T22:21:57.113Z,5.50
2018-11-05T22:24:24.771Z,5.50
2018-11-05T22:26:52.355Z,5.50
2018-11-05T22:29:19.928Z,5.40
2018-11-05T22:31:47.569Z,5.30
2018-11-05T22:34:15.228Z,5.30
2018-11-05T22:36:42.875Z,5.30
2018-11-05T22:39:10.451Z,5.30
2018-11-05T22:41:38.228Z,5.30
2018-11-05T22:44:06.020Z,5.30
2018-11-05T22:46:33.620Z,5.30
2018-11-05T22:49:01.187Z,5.30
2018-11-05T22:51:28.802Z,5.20
2018-11-05T22:53:56.448Z,5.20
2018-11-05T22:56:24.097Z,5.10
2018-11-05T22:58:51.765Z,5.10
2018-11-05T23:01:25.064Z,5.00
2018-11-05T23:03:52.924Z,5.00
2018-11-05T23:06:20.500Z,5.00
2018-11-05T23:08:48.070Z,5.00
2018-11-05T23:11:15.688Z,5.00
2018-11-05T23:13:43.266Z,4.90
2018-11-05T23:16:10.868Z,4.80
2018-11-05T23:18:38.451Z,4.80
2018-11-05T23:21:06.378Z,4.70
2018-11-05T23:23:33.950Z,4.70
2018-11-05T23:26:01.552Z,4.70
2018-11-05T23:28:29.146Z,4.70
2018-11-05T23:30:56.743Z,4.60
2018-11-05T23:33:24.473Z,4.60
2018-11-05T23:35:52.045Z,4.60
2018-11-05T23:38:19.724Z,4.60
2018-11-05T23:40:47.455Z,4.50
2018-11-05T23:43:15.241Z,4.60
2018-11-05T23:45:43.136Z,4.50
2018-11-05T23:48:10.700Z,4.50
2018-11-05T23:50:38.589Z,4.40
2018-11-05T23:53:06.214Z,4.50
2018-11-05T23:55:34.118Z,4.50
2018-11-05T23:58:01.733Z,4.40
